SBGW

Guaratinguetá Airport

Guaratinguetá, Brazil
TAF SBGW 181500Z 1818/1906 08005KT 9999 FEW030 TX32/1818Z TN23/1906Z PROB40 TEMPO 1818/1820 SHRA SCT035 FEW040TCU RMK PCO
Issued Valid From Valid To
Dec-18 @ 15:00 UTC
(9 hours ago)
Dec-18 @ 18:00 UTC
(6 hours ago)
Dec-19 @ 06:00 UTC
(in 6 hours)
Dec-18 @ 18:00 to Dec-19 @ 06:00
TAF SBGW 181500Z 1818/1906 08005KT 9999 FEW030 TX32/1818Z TN23/1906Z
Wind Visibility Clouds
80° at 5 knots 10,000+ meters
  • Few at 3,000' AGL
Expired Click to View Dec-18 @ 18:00 to Dec-18 @ 20:00
PROB40 TEMPO 1818/1820 SHRA SCT035 FEW040TCU RMK PCO
Clouds Conditions
  • Scattered at 3,500' AGL
  • Few at 4,000' AGL
  • Rain
TAF SBGW 181500Z 1818/1906 08005KT 9999 FEW030 TX32/1818Z TN23/1906Z PROB40 TEMPO 1818/1820 SHRA SCT035 FEW040TCU RMK PCO
Issued Dec-18 @ 15:00 UTC
(9 hours ago)
Valid From Dec-18 @ 18:00 UTC
(6 hours ago)
Valid To Dec-19 @ 06:00 UTC
(in 6 hours)
Dec-18 @ 18:00 - Dec-19 @ 06:00
Wind Visibility
80° at 5 knots 10,000+ meters
Clouds
  • Few at 3,000' AGL
Dec-18 @ 18:00 - Dec-18 @ 20:00
Clouds
  • Scattered at 3,500' AGL
  • Few at 4,000' AGL
Conditions
  • Rain